KLGF

Laguna AAF (Yuma Proving Ground) Airport

Yuma Proving Ground(Yuma), Arizona, USA
METAR KLGF 221755Z AUTO 00000KT 10SM CLR 26/09 A2988
Observed Flight Rules
Oct-22 @ 17:55 UTC (an hour ago) Visual Flight Rules
Visibility Clouds
10 miles
  • Clear skies
Temperatures Readings
Current 26°C / 79°F
Dewpoint 9°C / 48°F
Humidity 34%
Altimeter 29.88" Hg
Pressure 1012 hPa
Elevation 132
METAR KLGF 221755Z AUTO 00000KT 10SM CLR 26/09 A2988
Observed Flight Rules
Oct-22 @ 17:55 UTC
(an hour ago)
VFR
Clouds
  • Clear skies
Temperature Dewpoint
26°C / 79°F 9°C / 48°F
Humidity Altimeter Pressure
34% 29.88" Hg 1012 hPa